Terminal Aerodrome Forecast
Issued by NWS La Crosse, WI

Home | Current Version | Previous Version | Text Only | Print | Product List | Glossary On
Versions: 1 2 3 4 5 6 7 8 9 10 11 12
000
FTUS43 KARX 201724
TAFRST
TAF
KRST 201724Z 2018/2118 VRB04KT P6SM BKN200
     FM210000 VRB03KT 4SM BR SCT020 BKN100
     FM210400 05005KT 1SM BR OVC005=

USA.gov is the U.S. government's official web portal to all federal, state and local government web resources and services.